Terminal Aerodrome Forecast
Issued by NWS Cleveland, OH

Home | Current Version | Previous Version | Text Only | Print | Product List | Glossary Off
Versions: 1 2 3 4 5 6 7 8 9 10 11 12 13 14 15 16 17 18 19 20 21

000
FTUS41 KCLE 220538
TAFERI
TAF
KERI 220538Z 2206/2306 18004KT P6SM SCT250
     FM221400 20006KT P6SM SCT250
     FM221700 27006KT P6SM BKN250
     FM230100 18004KT P6SM BKN250=

USA.gov is the U.S. government's official web portal to all federal, state and local government web resources and services.